Time;durP1;ratioP1;P1;durP2;ratioP2;P2;SDS_P1;SDS_P2;PMS_P1;PMS_P2;Temp;Humidity;BMP_temperature;BMP_pressure;BME280_temperature;BME280_humidity;BME280_pressure;Samples;Min_cycle;Max_cycle;Signal;HPM_P1;HPM_P2
2021/08/15 00:02:39;;;;;;;;;35.33;33.00;;;;;;;;6489926;39;9027;-63
2021/08/15 00:08:42;;;;;;;;;38.67;32.67;;;;;;;;6490444;39;8955;-64
2021/08/15 00:14:44;;;;;;;;;32.50;30.50;;;;;;;;6490566;39;8987;-64
2021/08/15 00:20:47;;;;;;;;;36.67;33.33;;;;;;;;6490303;39;8967;-63
2021/08/15 00:26:50;;;;;;;;;32.67;28.33;;;;;;;;6490417;31;9047;-64
2021/08/15 00:32:52;;;;;;;;;34.67;33.00;;;;;;;;6489626;39;8994;-62
2021/08/15 00:38:55;;;;;;;;;28.33;25.00;;;;;;;;6489627;46;8984;-64
2021/08/15 00:44:57;;;;;;;;;33.67;28.33;;;;;;;;6489360;39;8948;-64
2021/08/15 00:51:01;;;;;;;;;30.50;27.50;;;;;;;;6490251;39;9064;-64
2021/08/15 00:57:05;;;;;;;;;33.00;31.00;;;;;;;;6489979;39;9084;-63
2021/08/15 01:03:07;;;;;;;;;26.67;24.67;;;;;;;;6491019;39;9787;-64
2021/08/15 01:09:10;;;;;;;;;24.67;20.67;;;;;;;;6490098;39;9126;-63
2021/08/15 01:15:13;;;;;;;;;27.33;25.67;;;;;;;;6489040;46;9002;-63
2021/08/15 01:21:17;;;;;;;;;28.00;24.00;;;;;;;;6489575;46;8963;-64
2021/08/15 01:27:20;;;;;;;;;24.33;24.33;;;;;;;;6488880;39;9020;-63
2021/08/15 01:33:28;;;;;;;;;14.00;13.33;;;;;;;;6489813;46;8994;-63
2021/08/15 01:39:30;;;;;;;;;26.67;23.00;;;;;;;;6489646;39;9067;-63
2021/08/15 01:45:32;;;;;;;;;21.67;20.00;;;;;;;;6489998;39;9583;-63
2021/08/15 01:51:34;;;;;;;;;24.00;21.67;;;;;;;;6489087;46;9088;-64
2021/08/15 01:57:36;;;;;;;;;29.00;26.33;;;;;;;;6490325;31;8970;-64
2021/08/15 02:03:39;;;;;;;;;25.33;23.67;;;;;;;;6488852;39;9164;-64
2021/08/15 02:09:41;;;;;;;;;27.67;26.33;;;;;;;;6128639;39;10002141;-65
2021/08/15 02:15:43;;;;;;;;;23.67;23.00;;;;;;;;6489691;39;9006;-64
2021/08/15 02:21:46;;;;;;;;;29.33;27.67;;;;;;;;6489441;39;9584;-63
2021/08/15 02:27:48;;;;;;;;;26.67;26.67;;;;;;;;6489353;39;9020;-64
2021/08/15 02:33:51;;;;;;;;;29.33;27.33;;;;;;;;6488528;46;9006;-65
2021/08/15 02:39:58;;;;;;;;;29.00;25.67;;;;;;;;6488532;46;9049;-64
2021/08/15 02:46:02;;;;;;;;;35.67;33.67;;;;;;;;6488082;46;9043;-64
2021/08/15 02:52:04;;;;;;;;;32.00;29.33;;;;;;;;6488288;39;9043;-64
2021/08/15 02:58:06;;;;;;;;;29.67;24.33;;;;;;;;6488652;47;8963;-62
2021/08/15 03:04:09;;;;;;;;;32.67;28.33;;;;;;;;6489134;31;9072;-64
2021/08/15 03:10:11;;;;;;;;;29.00;26.00;;;;;;;;6488618;31;9024;-64
2021/08/15 03:16:13;;;;;;;;;24.33;21.33;;;;;;;;5966422;31;10001000;-64
2021/08/15 03:22:15;;;;;;;;;27.00;27.00;;;;;;;;6489710;31;10868;-64
2021/08/15 03:28:18;;;;;;;;;32.33;30.33;;;;;;;;6488393;47;8955;-64
2021/08/15 03:34:20;;;;;;;;;32.00;29.67;;;;;;;;6488313;47;8965;-64
2021/08/15 03:40:23;;;;;;;;;36.33;32.33;;;;;;;;6490056;31;8983;-64
2021/08/15 03:46:25;;;;;;;;;35.33;31.33;;;;;;;;6490734;39;9104;-64
2021/08/15 03:52:27;;;;;;;;;30.00;30.00;;;;;;;;6490588;39;9110;-64
2021/08/15 03:58:30;;;;;;;;;27.67;23.67;;;;;;;;6490598;39;9007;-65
2021/08/15 04:04:33;;;;;;;;;25.00;22.67;;;;;;;;6490350;46;8979;-65
2021/08/15 04:10:36;;;;;;;;;29.33;29.33;;;;;;;;6489991;46;9174;-63
2021/08/15 04:16:39;;;;;;;;;25.33;24.67;;;;;;;;6489673;39;9702;-63
2021/08/15 04:22:42;;;;;;;;;29.00;26.00;;;;;;;;6489427;39;9036;-64
2021/08/15 04:28:44;;;;;;;;;31.67;29.00;;;;;;;;6490352;39;8967;-63
2021/08/15 04:34:47;;;;;;;;;30.33;28.33;;;;;;;;6489509;31;8970;-63
2021/08/15 04:40:50;;;;;;;;;32.33;31.00;;;;;;;;6489989;46;8969;-63
2021/08/15 04:46:54;;;;;;;;;30.00;26.00;;;;;;;;6489971;39;8967;-64
2021/08/15 04:52:56;;;;;;;;;38.33;34.33;;;;;;;;6489146;46;9074;-63
2021/08/15 04:58:58;;;;;;;;;34.00;32.00;;;;;;;;6489608;31;8987;-63
2021/08/15 05:05:01;;;;;;;;;32.33;29.33;;;;;;;;6490198;31;9013;-64
2021/08/15 05:11:03;;;;;;;;;36.33;32.67;;;;;;;;6488960;39;8986;-64
2021/08/15 05:17:06;;;;;;;;;32.33;32.00;;;;;;;;6489236;39;9059;-64
2021/08/15 05:23:08;;;;;;;;;35.67;34.00;;;;;;;;6489237;39;8987;-65
2021/08/15 05:29:10;;;;;;;;;37.67;34.67;;;;;;;;6489226;39;9728;-64
2021/08/15 05:35:13;;;;;;;;;38.33;34.67;;;;;;;;6489673;39;8999;-65
2021/08/15 05:41:19;;;;;;;;;36.67;35.00;;;;;;;;6488637;46;9069;-64
2021/08/15 05:47:24;;;;;;;;;40.00;37.67;;;;;;;;6489594;39;8946;-63
2021/08/15 05:53:26;;;;;;;;;42.33;37.00;;;;;;;;6489511;39;9006;-65
2021/08/15 05:59:28;;;;;;;;;39.00;34.50;;;;;;;;6489203;39;8934;-63
2021/08/15 06:05:30;;;;;;;;;44.33;42.00;;;;;;;;6487680;39;8998;-63
2021/08/15 06:11:32;;;;;;;;;41.00;35.33;;;;;;;;6488913;39;9159;-64
2021/08/15 06:17:36;;;;;;;;;43.33;35.00;;;;;;;;6489673;39;9049;-64
2021/08/15 06:23:39;;;;;;;;;39.67;32.67;;;;;;;;6488344;46;8971;-63
2021/08/15 06:29:41;;;;;;;;;32.67;30.33;;;;;;;;6488682;46;9041;-64
2021/08/15 06:35:43;;;;;;;;;32.00;29.00;;;;;;;;6488764;39;9011;-63
2021/08/15 06:41:47;;;;;;;;;31.50;28.25;;;;;;;;6488901;39;8978;-65
2021/08/15 06:47:49;;;;;;;;;26.67;23.00;;;;;;;;6488145;39;9077;-64
2021/08/15 06:53:52;;;;;;;;;27.25;26.00;;;;;;;;6488305;39;9101;-64
2021/08/15 06:59:55;;;;;;;;;26.00;24.00;;;;;;;;6489067;39;8967;-64
2021/08/15 07:05:58;;;;;;;;;33.50;31.50;;;;;;;;6488815;39;9074;-64
2021/08/15 07:12:00;;;;;;;;;26.75;24.25;;;;;;;;6487890;46;9076;-65
2021/08/15 07:18:04;;;;;;;;;28.25;25.50;;;;;;;;6490083;39;8962;-64
2021/08/15 07:24:07;;;;;;;;;27.50;25.50;;;;;;;;6490512;39;8979;-65
2021/08/15 07:30:10;;;;;;;;;28.25;25.50;;;;;;;;6489766;46;8963;-66
2021/08/15 07:36:12;;;;;;;;;21.00;21.00;;;;;;;;6411466;31;5000855;-65
2021/08/15 07:42:14;;;;;;;;;21.75;21.75;;;;;;;;6489727;46;9017;-64
2021/08/15 07:48:17;;;;;;;;;22.75;21.00;;;;;;;;6490065;39;8962;-65
2021/08/15 07:54:19;;;;;;;;;22.25;21.00;;;;;;;;6489421;39;9072;-66
2021/08/15 08:00:21;;;;;;;;;19.00;18.25;;;;;;;;6489756;39;9073;-66
2021/08/15 08:06:24;;;;;;;;;17.00;17.00;;;;;;;;6490893;39;9029;-65
2021/08/15 08:12:26;;;;;;;;;20.50;19.00;;;;;;;;6489995;39;8970;-67
2021/08/15 08:18:28;;;;;;;;;22.75;22.25;;;;;;;;6488818;39;9092;-65
2021/08/15 08:24:30;;;;;;;;;11.75;11.75;;;;;;;;6488926;46;9019;-64
2021/08/15 08:30:32;;;;;;;;;17.00;16.75;;;;;;;;6489809;39;8981;-64
2021/08/15 08:36:35;;;;;;;;;17.25;17.25;;;;;;;;6489454;31;8990;-64
2021/08/15 08:42:37;;;;;;;;;17.25;17.25;;;;;;;;6490301;39;9618;-64
2021/08/15 08:48:40;;;;;;;;;17.25;12.75;;;;;;;;6489119;39;8950;-65
2021/08/15 08:54:42;;;;;;;;;17.50;16.50;;;;;;;;6489774;39;9090;-65
2021/08/15 09:00:49;;;;;;;;;13.25;13.00;;;;;;;;6490299;31;8950;-65
2021/08/15 09:06:52;;;;;;;;;20.75;18.00;;;;;;;;6488903;31;9025;-65
2021/08/15 09:13:01;;;;;;;;;17.25;17.25;;;;;;;;6489630;39;9666;-65
2021/08/15 09:19:33;;;;;;;;;16.50;16.00;;;;;;;;6489706;31;8962;-66
2021/08/15 09:25:35;;;;;;;;;16.25;16.25;;;;;;;;6488992;39;9010;-64
2021/08/15 09:31:43;;;;;;;;;17.25;17.25;;;;;;;;6489723;39;8938;-65
2021/08/15 09:37:52;;;;;;;;;18.25;15.25;;;;;;;;6489750;39;9017;-64
2021/08/15 09:44:26;;;;;;;;;13.25;13.25;;;;;;;;6518384;36;8872;-65
2021/08/15 09:50:28;;;;;;;;;14.75;14.75;;;;;;;;6489001;46;8990;-64
2021/08/15 09:56:38;;;;;;;;;14.50;14.50;;;;;;;;6489806;39;9637;-65
2021/08/15 10:02:41;;;;;;;;;14.00;14.00;;;;;;;;6490098;39;9409;-65
2021/08/15 10:08:43;;;;;;;;;13.50;12.00;;;;;;;;6488761;39;9018;-65
2021/08/15 10:14:46;;;;;;;;;17.25;16.00;;;;;;;;6488765;39;9704;-63
2021/08/15 10:20:49;;;;;;;;;14.75;13.00;;;;;;;;6489553;39;9127;-65
2021/08/15 10:26:54;;;;;;;;;14.75;14.00;;;;;;;;6488354;46;9005;-64
2021/08/15 10:32:56;;;;;;;;;9.00;9.00;;;;;;;;6488502;39;8962;-67
2021/08/15 10:39:00;;;;;;;;;21.75;18.75;;;;;;;;6488235;31;9083;-64
2021/08/15 10:45:08;;;;;;;;;22.00;21.00;;;;;;;;6488585;31;9142;-65
2021/08/15 10:51:40;;;;;;;;;19.75;16.00;;;;;;;;6488384;47;8978;-64
2021/08/15 10:57:46;;;;;;;;;17.50;17.25;;;;;;;;6488188;46;8970;-65
2021/08/15 11:03:49;;;;;;;;;16.00;14.50;;;;;;;;6488342;31;8983;-66
2021/08/15 11:09:53;;;;;;;;;15.00;13.75;;;;;;;;6488478;39;8966;-65
2021/08/15 11:16:27;;;;;;;;;18.50;16.25;;;;;;;;6488384;47;9002;-65
2021/08/15 11:22:29;;;;;;;;;17.25;16.00;;;;;;;;6488185;39;8990;-65
2021/08/15 11:28:32;;;;;;;;;17.00;16.50;;;;;;;;6487587;46;9637;-66
2021/08/15 11:34:35;;;;;;;;;16.50;15.50;;;;;;;;6489187;31;8985;-64
2021/08/15 11:40:48;;;;;;;;;15.25;15.25;;;;;;;;6487845;39;8951;-64
2021/08/15 11:46:50;;;;;;;;;16.00;15.25;;;;;;;;6487896;39;9006;-66
2021/08/15 11:52:52;;;;;;;;;17.75;15.75;;;;;;;;6487676;46;9052;-64
2021/08/15 11:58:55;;;;;;;;;16.50;13.75;;;;;;;;6488213;39;8958;-64
2021/08/15 12:04:58;;;;;;;;;14.75;14.75;;;;;;;;6489564;46;9038;-65
2021/08/15 12:11:03;;;;;;;;;15.25;15.25;;;;;;;;6490158;39;8994;-65
2021/08/15 12:17:05;;;;;;;;;20.75;17.75;;;;;;;;6491240;31;9096;-65
2021/08/15 12:23:09;;;;;;;;;20.25;18.75;;;;;;;;6490863;31;8993;-65
2021/08/15 12:29:22;;;;;;;;;18.25;16.25;;;;;;;;6489981;39;9092;-63
2021/08/15 12:35:28;;;;;;;;;13.25;13.25;;;;;;;;6490157;31;9177;-65
2021/08/15 12:42:08;;;;;;;;;16.00;16.00;;;;;;;;6490067;39;9578;-63
2021/08/15 12:48:10;;;;;;;;;19.75;19.75;;;;;;;;6489199;39;9098;-64
2021/08/15 12:54:13;;;;;;;;;19.25;18.25;;;;;;;;6489604;39;9037;-65
2021/08/15 13:00:17;;;;;;;;;18.50;18.25;;;;;;;;6489839;39;8971;-64
2021/08/15 13:06:24;;;;;;;;;17.25;15.50;;;;;;;;6489954;39;8982;-63
2021/08/15 13:12:26;;;;;;;;;16.25;16.25;;;;;;;;6490259;31;9113;-64
2021/08/15 13:18:31;;;;;;;;;19.25;17.25;;;;;;;;6490009;39;8951;-64
2021/08/15 13:24:33;;;;;;;;;14.50;13.00;;;;;;;;6489774;31;9159;-63
2021/08/15 13:30:35;;;;;;;;;15.25;14.00;;;;;;;;6489227;46;8994;-64
2021/08/15 13:36:37;;;;;;;;;17.25;17.25;;;;;;;;6489857;31;8966;-64
2021/08/15 13:42:40;;;;;;;;;17.00;16.75;;;;;;;;6489219;39;9627;-63
2021/08/15 13:48:42;;;;;;;;;16.25;15.50;;;;;;;;6488642;46;8978;-63
2021/08/15 13:54:44;;;;;;;;;15.75;15.25;;;;;;;;6489637;39;8942;-65
2021/08/15 14:00:50;;;;;;;;;17.00;15.75;;;;;;;;6489441;39;9046;-64
2021/08/15 14:06:53;;;;;;;;;14.75;14.75;;;;;;;;6488499;39;8971;-64
2021/08/15 14:12:55;;;;;;;;;18.50;16.50;;;;;;;;6489901;39;8958;-64
2021/08/15 14:18:58;;;;;;;;;17.50;15.50;;;;;;;;6489213;39;9725;-64
2021/08/15 14:25:05;;;;;;;;;17.75;17.00;;;;;;;;6487681;46;8963;-64
2021/08/15 14:31:07;;;;;;;;;13.25;13.25;;;;;;;;6544965;36;8923;-64
2021/08/15 14:37:09;;;;;;;;;17.00;15.75;;;;;;;;6488589;39;8987;-65
2021/08/15 14:43:11;;;;;;;;;16.25;16.00;;;;;;;;6488809;39;9405;-65
2021/08/15 14:49:17;;;;;;;;;16.00;16.00;;;;;;;;6488267;39;9091;-64
2021/08/15 14:55:19;;;;;;;;;15.25;15.00;;;;;;;;6488938;39;8965;-65
2021/08/15 15:01:21;;;;;;;;;15.75;15.75;;;;;;;;6488723;39;8964;-65
2021/08/15 15:07:24;;;;;;;;;18.25;17.25;;;;;;;;6488480;39;8976;-64
2021/08/15 15:13:26;;;;;;;;;18.25;17.00;;;;;;;;6488580;39;9100;-64
2021/08/15 15:19:29;;;;;;;;;18.50;16.50;;;;;;;;6488203;47;9166;-64
2021/08/15 15:25:31;;;;;;;;;16.25;15.25;;;;;;;;6487717;31;9012;-65
2021/08/15 15:31:34;;;;;;;;;8.75;8.75;;;;;;;;6488141;47;9004;-65
2021/08/15 15:37:39;;;;;;;;;18.75;17.25;;;;;;;;6489331;46;8956;-64
2021/08/15 15:43:41;;;;;;;;;16.25;16.25;;;;;;;;6489990;39;9780;-64
2021/08/15 15:49:43;;;;;;;;;21.25;19.00;;;;;;;;6489706;31;9165;-64
2021/08/15 15:55:46;;;;;;;;;16.75;14.00;;;;;;;;6490664;39;9400;-64
2021/08/15 16:01:48;;;;;;;;;17.50;15.75;;;;;;;;6489632;39;9434;-64
2021/08/15 16:07:52;;;;;;;;;16.25;16.00;;;;;;;;6490064;39;9088;-64
2021/08/15 16:13:55;;;;;;;;;21.00;20.25;;;;;;;;6490025;39;9007;-64
2021/08/15 16:19:57;;;;;;;;;19.00;17.00;;;;;;;;6490137;39;9022;-64
2021/08/15 16:26:02;;;;;;;;;22.00;20.75;;;;;;;;6489273;31;9202;-64
2021/08/15 16:32:04;;;;;;;;;29.50;27.75;;;;;;;;6489073;39;8945;-64
2021/08/15 16:38:06;;;;;;;;;20.00;20.00;;;;;;;;6488714;46;9025;-64
2021/08/15 16:44:09;;;;;;;;;59.00;48.50;;;;;;;;6489992;39;8989;-65
2021/08/15 16:50:11;;;;;;;;;20.00;19.50;;;;;;;;6489925;39;9558;-64
2021/08/15 16:56:15;;;;;;;;;17.50;15.75;;;;;;;;6490015;39;9448;-65
2021/08/15 17:02:18;;;;;;;;;23.25;18.25;;;;;;;;6489406;39;10049;-64
2021/08/15 17:08:20;;;;;;;;;19.75;16.75;;;;;;;;6489053;39;9700;-65
2021/08/15 17:14:22;;;;;;;;;20.50;17.00;;;;;;;;6489149;39;8964;-65
2021/08/15 17:20:25;;;;;;;;;24.25;23.75;;;;;;;;6489187;46;8981;-63
2021/08/15 17:26:27;;;;;;;;;16.75;16.75;;;;;;;;6488978;46;8989;-63
2021/08/15 17:32:29;;;;;;;;;22.25;19.75;;;;;;;;6489075;39;8975;-64
2021/08/15 17:38:31;;;;;;;;;13.75;13.25;;;;;;;;6490110;39;8949;-65
2021/08/15 17:44:34;;;;;;;;;21.25;20.00;;;;;;;;6489605;39;9040;-64
2021/08/15 17:50:38;;;;;;;;;19.00;16.75;;;;;;;;6488717;39;9005;-63
2021/08/15 17:56:40;;;;;;;;;19.50;19.50;;;;;;;;6488916;46;8957;-64
2021/08/15 18:02:42;;;;;;;;;23.00;21.75;;;;;;;;6489008;31;9040;-64
2021/08/15 18:08:45;;;;;;;;;22.00;20.75;;;;;;;;6488370;31;8981;-64
2021/08/15 18:14:49;;;;;;;;;15.50;15.50;;;;;;;;6488926;39;8981;-64
2021/08/15 18:20:51;;;;;;;;;32.50;32.25;;;;;;;;6489002;39;9581;-64
2021/08/15 18:26:54;;;;;;;;;26.00;20.50;;;;;;;;6488950;39;8981;-64
2021/08/15 18:32:57;;;;;;;;;24.50;21.50;;;;;;;;6488353;46;8993;-63
2021/08/15 18:38:59;;;;;;;;;16.75;16.50;;;;;;;;6488189;39;8977;-65
2021/08/15 18:45:02;;;;;;;;;23.75;19.75;;;;;;;;6489680;31;9672;-64
2021/08/15 18:51:04;;;;;;;;;22.25;21.00;;;;;;;;6489085;39;8993;-65
2021/08/15 18:57:10;;;;;;;;;20.00;20.00;;;;;;;;6488652;31;9008;-64
2021/08/15 19:03:14;;;;;;;;;24.50;21.00;;;;;;;;6488535;39;9639;-63
2021/08/15 19:09:16;;;;;;;;;20.25;20.25;;;;;;;;6488746;46;8976;-64
2021/08/15 19:15:20;;;;;;;;;19.50;18.25;;;;;;;;6490302;39;9461;-65
2021/08/15 19:21:22;;;;;;;;;25.75;25.75;;;;;;;;6491112;39;8945;-64
2021/08/15 19:27:24;;;;;;;;;23.50;22.50;;;;;;;;6490266;46;8989;-64
2021/08/15 19:33:26;;;;;;;;;22.75;21.75;;;;;;;;6489950;46;8998;-64
2021/08/15 19:39:29;;;;;;;;;21.00;19.25;;;;;;;;6490823;31;9049;-64
2021/08/15 19:45:31;;;;;;;;;21.75;19.25;;;;;;;;6490541;39;9644;-63
2021/08/15 19:51:39;;;;;;;;;25.00;24.00;;;;;;;;6489980;39;8985;-64
2021/08/15 19:57:41;;;;;;;;;22.25;21.00;;;;;;;;6490613;39;9181;-64
2021/08/15 20:03:44;;;;;;;;;26.25;25.25;;;;;;;;6490357;31;9051;-64
2021/08/15 20:09:46;;;;;;;;;23.25;21.50;;;;;;;;6490320;39;8965;-64
2021/08/15 20:15:48;;;;;;;;;19.25;19.25;;;;;;;;6490629;39;8973;-63
2021/08/15 20:21:51;;;;;;;;;18.25;16.75;;;;;;;;6489463;39;8988;-63
2021/08/15 20:27:54;;;;;;;;;17.75;17.75;;;;;;;;6490142;39;9074;-64
2021/08/15 20:33:57;;;;;;;;;20.25;19.50;;;;;;;;6489736;39;8992;-65
2021/08/15 20:39:59;;;;;;;;;20.75;20.50;;;;;;;;6489026;31;8997;-64
2021/08/15 20:46:04;;;;;;;;;23.75;20.50;;;;;;;;6489437;31;9004;-64
2021/08/15 20:52:06;;;;;;;;;17.50;16.50;;;;;;;;6490084;39;9004;-64
2021/08/15 20:58:08;;;;;;;;;18.50;18.50;;;;;;;;6490109;39;9069;-64
2021/08/15 21:04:13;;;;;;;;;20.00;20.00;;;;;;;;6489208;46;9116;-64
2021/08/15 21:10:16;;;;;;;;;20.25;18.50;;;;;;;;6490871;39;9614;-64
2021/08/15 21:16:18;;;;;;;;;18.00;16.75;;;;;;;;6490204;31;9136;-63
2021/08/15 21:22:21;;;;;;;;;18.00;16.67;;;;;;;;6488930;39;8967;-65
2021/08/15 21:28:23;;;;;;;;;19.75;18.75;;;;;;;;6489159;46;9000;-64
2021/08/15 21:34:25;;;;;;;;;18.50;16.25;;;;;;;;6489566;39;9552;-65
2021/08/15 21:40:27;;;;;;;;;19.25;18.75;;;;;;;;6489094;31;8980;-63
2021/08/15 21:46:30;;;;;;;;;16.75;14.75;;;;;;;;6489354;46;8995;-65
2021/08/15 21:52:32;;;;;;;;;18.75;18.75;;;;;;;;6489725;31;9075;-64
2021/08/15 21:58:35;;;;;;;;;16.50;14.00;;;;;;;;6489647;39;8938;-63
2021/08/15 22:04:37;;;;;;;;;17.50;16.50;;;;;;;;6488394;46;9021;-65
2021/08/15 22:10:39;;;;;;;;;17.75;16.50;;;;;;;;6488765;46;8965;-64
2021/08/15 22:16:44;;;;;;;;;13.75;13.75;;;;;;;;6488922;39;10242;-64
2021/08/15 22:22:46;;;;;;;;;18.50;17.00;;;;;;;;6489414;39;8972;-64
2021/08/15 22:28:50;;;;;;;;;17.00;15.50;;;;;;;;6489572;39;8965;-64
2021/08/15 22:34:52;;;;;;;;;14.00;14.00;;;;;;;;6489031;39;8983;-65
2021/08/15 22:40:55;;;;;;;;;17.25;17.00;;;;;;;;6489026;39;8985;-64
2021/08/15 22:46:57;;;;;;;;;15.25;15.25;;;;;;;;6489799;39;9041;-64
2021/08/15 22:52:59;;;;;;;;;17.25;16.75;;;;;;;;6488952;46;8992;-63
2021/08/15 22:59:03;;;;;;;;;18.00;16.75;;;;;;;;6488726;31;8965;-64
2021/08/15 23:05:05;;;;;;;;;19.50;19.00;;;;;;;;6488520;47;9000;-63
2021/08/15 23:11:08;;;;;;;;;17.00;16.25;;;;;;;;6487524;39;8973;-65
2021/08/15 23:17:10;;;;;;;;;19.25;18.75;;;;;;;;6488715;39;8957;-63
2021/08/15 23:23:12;;;;;;;;;16.50;16.50;;;;;;;;6488630;47;8969;-64
2021/08/15 23:29:16;;;;;;;;;15.75;15.50;;;;;;;;6487973;47;8993;-63
2021/08/15 23:35:19;;;;;;;;;15.75;15.75;;;;;;;;6489270;39;8957;-63
2021/08/15 23:41:22;;;;;;;;;19.67;18.33;;;;;;;;6487353;47;8968;-64
2021/08/15 23:47:24;;;;;;;;;22.33;19.67;;;;;;;;6488495;47;8965;-63
2021/08/15 23:53:26;;;;;;;;;27.33;25.67;;;;;;;;6487974;47;9031;-64
2021/08/15 23:59:29;;;;;;;;;29.67;28.00;;;;;;;;6491008;39;8961;-63
